Time;durP1;ratioP1;P1;durP2;ratioP2;P2;SDS_P1;SDS_P2;PMS_P1;PMS_P2;Temp;Humidity;BMP_temperature;BMP_pressure;BME280_temperature;BME280_humidity;BME280_pressure;Samples;Min_cycle;Max_cycle;Signal;HPM_P1;HPM_P2
2023/07/17 00:00:24;;;;;;;16.55;12.98;;;742.40;2432.00;;;;;;5078625;28;20541;-71
2023/07/17 00:02:50;;;;;;;15.90;11.48;;;742.50;2432.00;;;;;;5075153;28;20059;-71
2023/07/17 00:05:16;;;;;;;18.23;12.57;;;742.60;2432.00;;;;;;5083465;28;20089;-71
2023/07/17 00:07:42;;;;;;;17.40;12.85;;;742.60;2432.00;;;;;;5084557;28;20048;-72
2023/07/17 00:10:10;;;;;;;15.25;11.60;;;742.60;2432.00;;;;;;5084075;28;20032;-71
2023/07/17 00:12:39;;;;;;;23.42;13.00;;;742.60;2432.00;;;;;;5084827;28;20037;-72
2023/07/17 00:15:05;;;;;;;19.77;13.15;;;742.50;2432.00;;;;;;5081895;28;20032;-71
2023/07/17 00:17:34;;;;;;;15.75;12.43;;;717.60;2432.00;;;;;;5076919;28;20036;-75
2023/07/17 00:20:00;;;;;;;15.07;12.73;;;717.50;2432.00;;;;;;5084321;28;20028;-71
2023/07/17 00:22:26;;;;;;;16.98;13.50;;;717.50;2432.00;;;;;;5079878;28;20466;-71
2023/07/17 00:24:53;;;;;;;14.82;12.43;;;717.40;2432.00;;;;;;5084223;28;20040;-71
2023/07/17 00:27:19;;;;;;;17.05;11.90;;;717.40;2432.00;;;;;;5079087;28;20112;-71
2023/07/17 00:29:45;;;;;;;15.10;12.70;;;717.50;2432.00;;;;;;5080365;28;20389;-71
2023/07/17 00:32:12;;;;;;;19.17;12.50;;;717.70;2432.00;;;;;;5083602;28;20025;-70
2023/07/17 00:34:39;;;;;;;16.83;12.50;;;742.40;2432.00;;;;;;5088001;28;20033;-72
2023/07/17 00:37:05;;;;;;;18.63;12.68;;;742.40;2432.00;;;;;;5081225;28;20054;-72
2023/07/17 00:39:31;;;;;;;19.05;13.32;;;742.40;2432.00;;;;;;5084121;28;20163;-72
2023/07/17 00:41:57;;;;;;;17.23;13.88;;;742.40;2432.00;;;;;;5083423;28;20457;-72
2023/07/17 00:44:23;;;;;;;19.92;14.32;;;742.40;2432.00;;;;;;5082804;28;20021;-70
2023/07/17 00:46:50;;;;;;;18.85;13.45;;;742.40;2432.00;;;;;;5090408;28;20025;-72
2023/07/17 00:49:17;;;;;;;18.60;13.10;;;742.60;2432.00;;;;;;5088148;28;20032;-72
2023/07/17 00:51:43;;;;;;;16.63;13.85;;;742.50;2432.00;;;;;;5084112;28;20056;-73
2023/07/17 00:54:11;;;;;;;21.73;13.35;;;742.50;2432.00;;;;;;5084220;28;20028;-71
2023/07/17 00:56:38;;;;;;;26.63;13.30;;;742.40;2432.00;;;;;;5086303;28;20046;-72
2023/07/17 00:59:04;;;;;;;21.02;13.68;;;742.40;2432.00;;;;;;5087112;28;20067;-73
2023/07/17 01:01:31;;;;;;;16.27;13.40;;;742.40;2432.00;;;;;;5091312;28;20032;-71
2023/07/17 01:04:00;;;;;;;17.02;14.23;;;742.40;2432.00;;;;;;5079084;28;20191;-71
2023/07/17 01:06:26;;;;;;;17.23;13.35;;;717.70;2432.00;;;;;;5082433;28;20101;-71
2023/07/17 01:08:52;;;;;;;19.85;15.27;;;717.60;2432.00;;;;;;5082217;28;20086;-74
2023/07/17 01:11:18;;;;;;;16.65;13.32;;;717.50;2432.00;;;;;;5081959;28;20032;-72
2023/07/17 01:13:48;;;;;;;18.92;14.20;;;717.50;2432.00;;;;;;5079890;28;20025;-71
2023/07/17 01:16:14;;;;;;;20.20;14.35;;;717.40;2432.00;;;;;;5090468;28;20031;-73
2023/07/17 01:18:40;;;;;;;18.95;15.30;;;717.30;2432.00;;;;;;5093975;28;20035;-72
2023/07/17 01:21:08;;;;;;;17.95;14.93;;;717.20;2432.00;;;;;;5089412;28;20120;-71
2023/07/17 01:23:34;;;;;;;19.15;14.18;;;717.20;2432.00;;;;;;5073903;28;20035;-77
2023/07/17 01:26:00;;;;;;;21.67;14.40;;;717.20;2432.00;;;;;;5072151;28;20025;-72
2023/07/17 01:28:27;;;;;;;17.88;14.27;;;717.20;2432.00;;;;;;5090268;28;20080;-71
2023/07/17 01:30:52;;;;;;;20.52;14.05;;;717.30;2432.00;;;;;;5113870;28;20089;-71
2023/07/17 01:33:18;;;;;;;18.42;14.48;;;717.20;2432.00;;;;;;5114059;28;20472;-77
2023/07/17 01:35:44;;;;;;;18.35;14.90;;;717.20;2432.00;;;;;;5110962;28;20023;-72
2023/07/17 01:38:10;;;;;;;16.15;13.77;;;717.10;2432.00;;;;;;5102036;28;20038;-72
2023/07/17 01:40:36;;;;;;;17.55;14.05;;;717.10;2432.00;;;;;;5113676;28;20019;-73
2023/07/17 01:43:02;;;;;;;19.98;14.93;;;717.10;2432.00;;;;;;5114137;28;20012;-72
2023/07/17 01:45:27;;;;;;;19.10;14.98;;;717.00;2432.00;;;;;;5113193;28;20036;-72
2023/07/17 01:47:53;;;;;;;18.80;14.75;;;717.00;2432.00;;;;;;5113667;28;20015;-72
2023/07/17 01:50:19;;;;;;;18.33;15.35;;;716.90;2432.00;;;;;;5113667;28;20126;-71
2023/07/17 01:52:44;;;;;;;17.85;14.70;;;716.90;2432.00;;;;;;5114082;28;20457;-73
2023/07/17 01:55:10;;;;;;;27.17;16.25;;;716.90;2432.00;;;;;;5112119;28;20032;-72
2023/07/17 01:57:36;;;;;;;22.55;15.75;;;716.90;2432.00;;;;;;5113761;28;20544;-71
2023/07/17 02:00:02;;;;;;;21.02;15.40;;;716.80;2432.00;;;;;;5113577;28;20354;-70
2023/07/17 02:02:28;;;;;;;17.63;13.85;;;716.80;2432.00;;;;;;5113246;28;20032;-71
2023/07/17 02:04:54;;;;;;;18.33;13.45;;;716.80;2432.00;;;;;;5113247;28;20023;-71
2023/07/17 02:07:19;;;;;;;21.83;13.57;;;716.80;2432.00;;;;;;5113424;28;20035;-73
2023/07/17 02:09:45;;;;;;;19.85;13.07;;;716.80;2432.00;;;;;;5112081;28;20035;-75
2023/07/17 02:12:11;;;;;;;17.95;14.10;;;692.10;2432.00;;;;;;5112073;28;20016;-72
2023/07/17 02:14:36;;;;;;;24.10;14.20;;;716.80;2432.00;;;;;;5113589;28;20462;-72
2023/07/17 02:17:02;;;;;;;21.13;14.70;;;716.80;2432.00;;;;;;5113929;28;20023;-72
2023/07/17 02:19:28;;;;;;;20.67;15.50;;;692.10;2432.00;;;;;;5113285;28;20036;-72
2023/07/17 02:21:53;;;;;;;21.58;14.85;;;692.10;2432.00;;;;;;5108271;28;20427;-71
2023/07/17 02:24:19;;;;;;;20.90;15.55;;;692.00;2432.00;;;;;;5104039;28;20114;-72
2023/07/17 02:26:45;;;;;;;18.85;14.82;;;692.10;2432.00;;;;;;5113289;28;20843;-71
2023/07/17 02:29:10;;;;;;;19.70;15.13;;;692.10;2432.00;;;;;;5113551;28;20019;-71
2023/07/17 02:31:36;;;;;;;20.48;14.13;;;692.10;2432.00;;;;;;5111684;28;20487;-71
2023/07/17 02:34:02;;;;;;;20.90;14.43;;;692.10;2432.00;;;;;;5113124;28;20019;-76
2023/07/17 02:36:28;;;;;;;21.92;14.32;;;692.00;2432.00;;;;;;5099115;28;20023;-72
2023/07/17 02:38:54;;;;;;;19.40;15.27;;;691.90;2432.00;;;;;;5113273;28;20027;-72
2023/07/17 02:41:20;;;;;;;21.02;15.40;;;691.90;2432.00;;;;;;5113045;28;20023;-72
2023/07/17 02:43:46;;;;;;;19.83;14.82;;;691.80;2432.00;;;;;;5113368;28;20027;-71
2023/07/17 02:46:11;;;;;;;19.73;14.90;;;691.90;2432.00;;;;;;5112179;28;20024;-72
2023/07/17 02:48:37;;;;;;;21.77;16.95;;;691.80;2432.00;;;;;;5117374;28;20470;-72
2023/07/17 02:51:03;;;;;;;20.60;15.13;;;691.80;2432.00;;;;;;5106125;28;20082;-72
2023/07/17 02:53:29;;;;;;;19.38;14.73;;;691.80;2432.00;;;;;;5114000;28;20073;-71
2023/07/17 02:55:55;;;;;;;21.52;15.25;;;691.70;2432.00;;;;;;5117272;28;20019;-72
2023/07/17 02:58:21;;;;;;;18.30;15.27;;;691.80;2432.00;;;;;;5103695;28;20370;-73
2023/07/17 03:00:47;;;;;;;21.88;15.52;;;691.70;2432.00;;;;;;5116627;28;20358;-71
2023/07/17 03:03:12;;;;;;;18.75;16.27;;;691.70;2432.00;;;;;;5116893;28;20069;-72
2023/07/17 03:05:38;;;;;;;20.77;14.07;;;691.70;2432.00;;;;;;5116517;28;20139;-72
2023/07/17 03:08:04;;;;;;;19.65;14.50;;;691.60;2432.00;;;;;;5116824;28;20893;-70
2023/07/17 03:10:30;;;;;;;17.27;14.63;;;691.60;2432.00;;;;;;5116692;28;20018;-71
2023/07/17 03:12:56;;;;;;;16.58;14.30;;;691.60;2432.00;;;;;;5115094;28;20032;-74
2023/07/17 03:15:23;;;;;;;21.80;13.93;;;691.70;2432.00;;;;;;5116507;28;20011;-72
2023/07/17 03:17:48;;;;;;;18.25;15.10;;;691.60;2432.00;;;;;;5116692;28;20455;-71
2023/07/17 03:20:14;;;;;;;23.42;13.70;;;691.60;2432.00;;;;;;5113220;28;20033;-73
2023/07/17 03:22:40;;;;;;;20.83;14.13;;;691.60;2432.00;;;;;;5106473;28;20027;-75
2023/07/17 03:25:07;;;;;;;19.52;13.43;;;691.60;2432.00;;;;;;5116209;28;20446;-74
2023/07/17 03:27:33;;;;;;;17.65;14.55;;;691.60;2432.00;;;;;;5116550;28;20023;-71
2023/07/17 03:29:59;;;;;;;20.08;13.43;;;691.50;2432.00;;;;;;5116425;28;20019;-74
2023/07/17 03:32:24;;;;;;;23.13;14.40;;;691.60;2432.00;;;;;;5115461;28;20032;-73
2023/07/17 03:34:50;;;;;;;16.50;14.70;;;691.70;2432.00;;;;;;5116500;28;20020;-71
2023/07/17 03:37:16;;;;;;;18.50;14.52;;;691.60;2432.00;;;;;;5116424;28;20028;-73
2023/07/17 03:39:41;;;;;;;17.20;14.15;;;691.60;2432.00;;;;;;5099193;28;20036;-72
2023/07/17 03:42:10;;;;;;;22.85;14.73;;;691.60;2432.00;;;;;;5094756;28;20127;-72
2023/07/17 03:44:39;;;;;;;19.85;14.32;;;691.50;2432.00;;;;;;5095473;28;20081;-70
2023/07/17 03:47:08;;;;;;;19.15;13.50;;;691.50;2432.00;;;;;;5097072;28;20055;-72
2023/07/17 03:49:34;;;;;;;20.23;15.13;;;691.50;2432.00;;;;;;5108122;28;20058;-73
2023/07/17 03:52:00;;;;;;;20.85;14.15;;;691.60;2432.00;;;;;;5115722;28;20496;-72
2023/07/17 03:54:27;;;;;;;19.42;13.13;;;691.60;2432.00;;;;;;5116062;28;20023;-74
2023/07/17 03:56:52;;;;;;;21.77;13.57;;;691.60;2432.00;;;;;;5115726;28;20019;-71
2023/07/17 03:59:23;;;;;;;17.88;14.07;;;691.60;2432.00;;;;;;5114648;28;20362;-74
2023/07/17 04:01:49;;;;;;;15.82;13.13;;;691.70;2432.00;;;;;;5115430;28;20020;-71
2023/07/17 04:04:15;;;;;;;16.98;12.77;;;691.60;2432.00;;;;;;5115600;28;20523;-72
2023/07/17 04:06:41;;;;;;;22.65;16.83;;;691.70;2432.00;;;;;;5112188;28;20052;-71
2023/07/17 04:09:06;;;;;;;23.92;18.83;;;691.70;2432.00;;;;;;5095617;28;20426;-72
2023/07/17 04:11:32;;;;;;;17.67;15.63;;;691.70;2432.00;;;;;;5095467;28;20020;-72
2023/07/17 04:13:58;;;;;;;17.00;15.20;;;691.80;2432.00;;;;;;5096749;28;20473;-72
2023/07/17 04:16:26;;;;;;;20.58;15.45;;;691.80;2432.00;;;;;;5094704;28;20048;-71
2023/07/17 04:18:52;;;;;;;28.02;15.82;;;691.90;2432.00;;;;;;5094541;28;20044;-71
2023/07/17 04:21:18;;;;;;;17.83;15.35;;;691.90;2432.00;;;;;;5095364;28;20020;-75
2023/07/17 04:23:48;;;;;;;18.00;15.50;;;692.10;2432.00;;;;;;5111558;28;20042;-71
2023/07/17 04:26:14;;;;;;;24.25;16.90;;;692.10;2432.00;;;;;;5115438;28;20043;-71
2023/07/17 04:28:40;;;;;;;17.27;15.23;;;692.10;2432.00;;;;;;5117890;28;20500;-79
2023/07/17 04:31:05;;;;;;;23.83;17.23;;;692.10;2432.00;;;;;;5115156;28;20102;-70
2023/07/17 04:33:33;;;;;;;18.52;13.40;;;716.80;2432.00;;;;;;5115193;28;20012;-71
2023/07/17 04:35:58;;;;;;;26.52;17.65;;;716.90;2432.00;;;;;;5104597;28;20494;-70
2023/07/17 04:38:24;;;;;;;24.17;18.42;;;716.90;2432.00;;;;;;5112283;28;20079;-71
2023/07/17 04:40:50;;;;;;;20.20;13.98;;;716.90;2432.00;;;;;;5115210;28;20115;-70
2023/07/17 04:43:16;;;;;;;21.65;14.85;;;717.00;2432.00;;;;;;5111067;28;20063;-74
2023/07/17 04:45:42;;;;;;;19.10;16.00;;;717.10;2432.00;;;;;;5105770;28;20024;-75
2023/07/17 04:48:08;;;;;;;22.77;16.33;;;717.00;2432.00;;;;;;5114961;28;20095;-72
2023/07/17 04:50:34;;;;;;;20.48;15.10;;;717.10;2432.00;;;;;;5115096;28;20028;-70
2023/07/17 04:53:00;;;;;;;17.50;14.43;;;717.00;2432.00;;;;;;5097647;28;20080;-70
2023/07/17 04:55:25;;;;;;;23.65;15.35;;;717.00;2432.00;;;;;;5105963;28;20035;-71
2023/07/17 04:57:51;;;;;;;23.80;15.35;;;717.10;2432.00;;;;;;5114227;28;20027;-70
2023/07/17 05:00:17;;;;;;;18.33;12.68;;;717.00;2432.00;;;;;;5101092;28;20040;-71
2023/07/17 05:02:43;;;;;;;21.70;13.13;;;717.00;2432.00;;;;;;5093020;28;20021;-71
2023/07/17 05:05:10;;;;;;;16.55;14.30;;;717.10;2432.00;;;;;;5093873;28;20032;-71
2023/07/17 05:07:35;;;;;;;18.17;13.32;;;717.20;2432.00;;;;;;5115964;27;20048;-75
2023/07/17 05:10:03;;;;;;;16.77;13.55;;;717.10;2432.00;;;;;;5114578;28;20102;-70
2023/07/17 05:12:28;;;;;;;17.45;13.85;;;717.10;2432.00;;;;;;5106171;28;20032;-79
2023/07/17 05:14:54;;;;;;;17.98;13.52;;;717.20;2432.00;;;;;;5081777;28;20436;-71
2023/07/17 05:17:20;;;;;;;17.25;13.10;;;717.30;2432.00;;;;;;5084849;28;20036;-80
2023/07/17 05:19:46;;;;;;;16.02;12.35;;;717.50;2432.00;;;;;;5084238;28;20044;-71
2023/07/17 05:22:11;;;;;;;16.77;13.15;;;717.60;2432.00;;;;;;5085754;28;20040;-71
2023/07/17 05:24:37;;;;;;;21.08;13.10;;;717.60;2432.00;;;;;;5084184;28;20718;-70
2023/07/17 05:27:04;;;;;;;23.85;14.20;;;717.70;2432.00;;;;;;5082906;28;20099;-72
2023/07/17 05:29:30;;;;;;;23.75;16.35;;;742.50;2432.00;;;;;;5084578;28;20084;-70
2023/07/17 05:31:56;;;;;;;20.55;14.15;;;742.50;2432.00;;;;;;5087329;28;20040;-71
2023/07/17 05:34:21;;;;;;;21.23;13.73;;;742.50;2432.00;;;;;;5082228;28;20055;-71
2023/07/17 05:36:47;;;;;;;15.40;13.52;;;742.50;2432.00;;;;;;5084126;28;20393;-70
2023/07/17 05:39:13;;;;;;;21.00;16.45;;;742.60;2432.00;;;;;;5076806;28;20410;-72
2023/07/17 05:41:38;;;;;;;23.58;16.38;;;742.60;2432.00;;;;;;5076312;28;20035;-70
2023/07/17 05:44:04;;;;;;;16.35;13.18;;;742.70;2432.00;;;;;;5079181;28;20028;-70
2023/07/17 05:46:30;;;;;;;14.85;11.82;;;742.70;2432.00;;;;;;5078949;28;20073;-70
2023/07/17 05:48:56;;;;;;;16.95;11.07;;;742.80;2432.00;;;;;;5075052;28;20477;-70
2023/07/17 05:51:22;;;;;;;19.48;13.07;;;742.80;2432.00;;;;;;5075950;28;20029;-72
2023/07/17 05:53:47;;;;;;;14.93;11.77;;;742.90;2432.00;;;;;;5079627;28;20131;-71
2023/07/17 05:56:15;;;;;;;16.98;12.07;;;743.00;2432.00;;;;;;5089038;28;20032;-71
2023/07/17 05:58:41;;;;;;;15.48;10.90;;;743.00;2432.00;;;;;;5084914;28;20141;-71
2023/07/17 06:01:07;;;;;;;18.38;11.73;;;743.10;2432.00;;;;;;5079869;28;20049;-71
2023/07/17 06:03:32;;;;;;;15.25;11.18;;;743.10;2432.00;;;;;;5083272;28;20536;-71
2023/07/17 06:05:58;;;;;;;20.92;11.75;;;743.30;2432.00;;;;;;5075940;28;20127;-73
2023/07/17 06:08:24;;;;;;;15.95;11.20;;;768.00;2432.00;;;;;;5078111;28;20033;-74
2023/07/17 06:10:49;;;;;;;14.57;11.25;;;768.10;2432.00;;;;;;5086157;28;20032;-74
2023/07/17 06:13:16;;;;;;;15.80;11.35;;;743.30;2432.00;;;;;;5084059;28;20268;-71
2023/07/17 06:15:43;;;;;;;15.20;11.30;;;768.10;2432.00;;;;;;5077885;28;20163;-72
2023/07/17 06:18:08;;;;;;;15.18;10.77;;;768.10;2432.00;;;;;;5082332;28;20036;-72
2023/07/17 06:20:34;;;;;;;16.67;10.77;;;768.30;2432.00;;;;;;5077364;28;20403;-70
2023/07/17 06:23:00;;;;;;;13.95;10.13;;;768.40;2432.00;;;;;;5079621;28;20386;-70
2023/07/17 06:25:26;;;;;;;15.52;11.10;;;768.50;2432.00;;;;;;5078942;28;20058;-70
2023/07/17 06:27:51;;;;;;;11.52;9.95;;;768.60;2432.00;;;;;;5082757;28;20109;-71
2023/07/17 06:30:17;;;;;;;14.38;10.55;;;768.60;2432.00;;;;;;5079268;28;20474;-71
2023/07/17 06:32:44;;;;;;;14.30;10.00;;;768.80;2432.00;;;;;;5083179;28;20036;-71
2023/07/17 06:35:10;;;;;;;16.85;10.50;;;768.90;2432.00;;;;;;5075236;28;20021;-71
2023/07/17 06:37:36;;;;;;;10.15;9.00;;;768.90;2432.00;;;;;;5084200;28;20036;-74
2023/07/17 06:40:04;;;;;;;11.77;9.60;;;793.60;2432.00;;;;;;5079691;28;20032;-70
2023/07/17 06:42:30;;;;;;;12.32;9.68;;;793.60;2432.00;;;;;;5080874;28;20028;-71
2023/07/17 06:44:56;;;;;;;15.10;9.38;;;793.70;2432.00;;;;;;5081965;28;20039;-71
2023/07/17 06:47:21;;;;;;;11.50;8.60;;;793.70;2432.00;;;;;;5079556;28;20029;-70
2023/07/17 06:49:47;;;;;;;13.02;9.10;;;793.70;2432.00;;;;;;5077510;28;20032;-70
2023/07/17 06:52:13;;;;;;;9.73;8.73;;;793.70;2432.00;;;;;;5078973;28;20024;-72
2023/07/17 06:54:39;;;;;;;12.27;8.95;;;793.90;2432.00;;;;;;5075880;28;20131;-71
2023/07/17 06:57:05;;;;;;;12.13;9.35;;;794.00;2432.00;;;;;;5078299;28;20036;-75
2023/07/17 06:59:31;;;;;;;94.90;17.60;;;794.10;2432.00;;;;;;5079571;28;20448;-71
2023/07/17 07:01:57;;;;;;;16.98;10.07;;;794.20;2432.00;;;;;;5078788;28;20024;-72
2023/07/17 07:04:22;;;;;;;20.73;10.25;;;794.20;2432.00;;;;;;5086254;28;20086;-71
2023/07/17 07:06:48;;;;;;;15.40;8.93;;;794.30;2432.00;;;;;;5078669;28;20537;-80
2023/07/17 07:09:14;;;;;;;18.80;10.40;;;794.40;2432.00;;;;;;5079772;28;20024;-71
2023/07/17 07:11:39;;;;;;;12.10;9.32;;;794.50;2432.00;;;;;;5081863;28;20466;-72
2023/07/17 07:14:05;;;;;;;13.18;9.60;;;819.30;2432.00;;;;;;5086179;28;20036;-73
2023/07/17 07:16:31;;;;;;;12.20;9.68;;;819.40;2432.00;;;;;;5079608;28;20035;-79
2023/07/17 07:18:56;;;;;;;10.60;9.50;;;819.50;2432.00;;;;;;5081036;28;20032;-83
2023/07/17 07:21:22;;;;;;;14.30;8.60;;;819.60;2432.00;;;;;;5084877;28;20021;-72
2023/07/17 07:23:48;;;;;;;13.40;9.38;;;819.70;2432.00;;;;;;5087837;28;20414;-71
2023/07/17 07:26:13;;;;;;;12.82;9.55;;;819.80;2432.00;;;;;;5079580;28;20024;-73
2023/07/17 07:28:39;;;;;;;11.98;9.60;;;819.90;2432.00;;;;;;5079939;28;20032;-71
2023/07/17 07:31:05;;;;;;;9.60;8.57;;;820.00;2432.00;;;;;;5080668;28;20444;-71
2023/07/17 07:33:30;;;;;;;14.20;10.18;;;820.00;2432.00;;;;;;5079340;28;20039;-82
2023/07/17 07:35:56;;;;;;;14.43;9.50;;;820.10;2432.00;;;;;;5088858;28;20027;-72
2023/07/17 07:38:22;;;;;;;10.68;8.82;;;844.80;2432.00;;;;;;5083887;28;20149;-71
2023/07/17 07:40:48;;;;;;;11.25;8.80;;;844.80;2432.00;;;;;;5088195;28;20388;-73
2023/07/17 07:43:14;;;;;;;10.77;9.65;;;844.80;2432.00;;;;;;5082853;28;20032;-71
2023/07/17 07:45:39;;;;;;;15.60;9.48;;;844.80;2304.00;;;;;;5083260;28;20039;-72
2023/07/17 07:48:05;;;;;;;12.93;8.82;;;844.90;2432.00;;;;;;5078237;28;20107;-72
2023/07/17 07:50:31;;;;;;;18.50;8.63;;;844.90;2432.00;;;;;;5087867;28;20425;-70
2023/07/17 07:52:57;;;;;;;10.30;8.45;;;845.00;2278.40;;;;;;5081194;28;20025;-72
2023/07/17 07:55:22;;;;;;;8.75;7.85;;;845.10;2150.40;;;;;;5082998;28;20024;-71
2023/07/17 07:57:49;;;;;;;10.98;7.20;;;845.20;2150.40;;;;;;5087065;28;20119;-76
2023/07/17 08:00:15;;;;;;;9.55;6.75;;;845.20;2176.00;;;;;;5086761;28;20054;-71
2023/07/17 08:02:41;;;;;;;8.98;7.90;;;845.30;2201.60;;;;;;5080320;28;20026;-75
2023/07/17 08:05:08;;;;;;;13.75;7.40;;;845.30;2252.80;;;;;;5084846;28;20029;-73
2023/07/17 08:07:34;;;;;;;11.68;8.35;;;845.30;2150.40;;;;;;5083057;28;20540;-70
2023/07/17 08:09:59;;;;;;;9.25;7.03;;;845.30;2124.80;;;;;;5088253;28;20024;-75
2023/07/17 08:12:25;;;;;;;10.98;7.95;;;845.40;2150.40;;;;;;5077415;28;20033;-74
2023/07/17 08:14:51;;;;;;;14.93;7.50;;;845.40;2099.20;;;;;;5081057;28;20413;-74
2023/07/17 08:17:17;;;;;;;12.95;8.05;;;845.40;2048.00;;;;;;5088842;28;20103;-80
2023/07/17 08:19:43;;;;;;;10.45;7.47;;;845.50;2073.60;;;;;;5083042;28;20165;-72
2023/07/17 08:22:09;;;;;;;8.80;7.80;;;845.50;2073.60;;;;;;5082221;28;20035;-72
2023/07/17 08:24:35;;;;;;;17.90;9.02;;;845.50;2099.20;;;;;;5085744;28;20027;-81
2023/07/17 08:27:00;;;;;;;11.85;8.73;;;845.50;2150.40;;;;;;5080952;28;20378;-73
2023/07/17 08:29:26;;;;;;;10.52;9.45;;;845.40;2201.60;;;;;;5086495;28;20028;-76
2023/07/17 08:31:52;;;;;;;12.45;9.70;;;845.50;2329.60;;;;;;5086143;28;20512;-75
2023/07/17 08:34:17;;;;;;;13.43;9.75;;;845.50;2304.00;;;;;;5085080;28;20024;-75
2023/07/17 08:36:43;;;;;;;19.00;9.30;;;845.50;2329.60;;;;;;5080735;28;20032;-71
2023/07/17 08:39:09;;;;;;;12.18;8.27;;;845.60;2329.60;;;;;;5079806;28;20049;-73
2023/07/17 08:41:36;;;;;;;11.63;8.45;;;845.50;2227.20;;;;;;5087235;28;20052;-72
2023/07/17 08:44:02;;;;;;;11.15;8.60;;;845.50;2227.20;;;;;;5082734;28;20032;-74
2023/07/17 08:46:30;;;;;;;14.82;9.20;;;845.60;2227.20;;;;;;5079437;28;20485;-78
2023/07/17 08:48:56;;;;;;;10.00;8.52;;;845.50;2278.40;;;;;;5081486;28;20097;-71
2023/07/17 08:51:23;;;;;;;11.38;7.90;;;845.60;2252.80;;;;;;5080785;28;20021;-73
2023/07/17 08:53:52;;;;;;;12.75;8.60;;;845.60;2252.80;;;;;;5083460;28;20036;-71
2023/07/17 08:56:18;;;;;;;10.27;8.65;;;845.70;2304.00;;;;;;5076714;28;20427;-79
2023/07/17 08:58:45;;;;;;;9.88;8.10;;;870.40;2201.60;;;;;;5082332;28;20036;-76
2023/07/17 09:01:12;;;;;;;11.20;7.88;;;870.40;2124.80;;;;;;5082616;28;20100;-78
2023/07/17 09:03:38;;;;;;;9.27;7.65;;;870.40;2124.80;;;;;;5078565;28;20025;-72
2023/07/17 09:06:04;;;;;;;13.07;8.38;;;845.70;2150.40;;;;;;5080828;28;20047;-73
2023/07/17 09:08:30;;;;;;;11.27;9.10;;;870.50;2201.60;;;;;;5087434;28;20508;-77
2023/07/17 09:11:04;;;;;;;13.85;8.90;;;870.50;2227.20;;;;;;5081951;28;20032;-72
2023/07/17 09:13:44;;;;;;;9.32;8.15;;;870.60;2227.20;;;;;;5076030;28;20039;-78
2023/07/17 09:16:23;;;;;;;12.95;7.20;;;870.70;2176.00;;;;;;5095849;28;20036;-79
2023/07/17 09:18:50;;;;;;;11.00;7.25;;;870.70;1945.60;;;;;;5080984;28;20028;-70
2023/07/17 09:21:24;;;;;;;13.65;8.02;;;870.70;1971.20;;;;;;5084796;28;20024;-75
2023/07/17 09:23:56;;;;;;;10.88;7.43;;;870.80;1996.80;;;;;;5084175;28;20093;-71
2023/07/17 09:26:24;;;;;;;9.60;7.38;;;870.90;1971.20;;;;;;5079364;28;20386;-72
2023/07/17 09:28:55;;;;;;;9.05;7.35;;;870.80;1945.60;;;;;;5083753;28;20017;-72
2023/07/17 09:31:27;;;;;;;11.65;6.90;;;870.90;1945.60;;;;;;5087120;28;20426;-77
2023/07/17 09:33:59;;;;;;;8.70;6.63;;;871.10;1945.60;;;;;;5085975;28;20042;-70
2023/07/17 09:36:24;;;;;;;8.02;6.68;;;871.10;1843.20;;;;;;5083979;28;20028;-71
2023/07/17 09:38:55;;;;;;;8.27;7.10;;;871.30;1920.00;;;;;;5080109;28;20036;-72
2023/07/17 09:41:27;;;;;;;10.32;6.78;;;896.10;1843.20;;;;;;5084720;28;20043;-71
2023/07/17 09:44:04;;;;;;;9.85;6.30;;;896.00;1766.40;;;;;;5076352;28;20052;-72
2023/07/17 09:46:49;;;;;;;10.95;6.45;;;896.20;1740.80;;;;;;5086726;28;20064;-73
2023/07/17 09:49:15;;;;;;;8.00;6.40;;;871.30;1638.40;;;;;;5084372;28;20020;-72
2023/07/17 09:51:41;;;;;;;15.63;6.20;;;896.60;1689.60;;;;;;5077750;28;20429;-74
2023/07/17 09:54:06;;;;;;;7.93;5.57;;;896.70;1638.40;;;;;;5076382;28;20060;-73
2023/07/17 09:56:33;;;;;;;11.43;5.97;;;896.80;1587.20;;;;;;5087567;28;20071;-72
2023/07/17 09:59:13;;;;;;;10.45;5.88;;;896.90;1612.80;;;;;;5079594;28;20090;-71
2023/07/17 10:01:43;;;;;;;7.80;5.72;;;921.60;1612.80;;;;;;5076136;28;20027;-72
2023/07/17 10:04:09;;;;;;;8.52;5.95;;;921.80;1612.80;;;;;;5080974;28;20016;-72
2023/07/17 10:06:38;;;;;;;10.63;6.40;;;922.00;1536.00;;;;;;5080956;28;20055;-74
2023/07/17 10:09:09;;;;;;;8.73;6.18;;;922.10;1561.60;;;;;;5078895;28;20098;-71
2023/07/17 10:11:36;;;;;;;9.77;5.47;;;922.30;1561.60;;;;;;5082037;28;20024;-74
2023/07/17 10:14:02;;;;;;;9.13;5.80;;;922.20;1510.40;;;;;;5087520;28;20382;-71
2023/07/17 10:16:28;;;;;;;7.53;6.03;;;922.40;1510.40;;;;;;5078585;28;20466;-73
2023/07/17 10:18:55;;;;;;;7.57;6.05;;;922.50;1510.40;;;;;;5079541;28;20074;-70
2023/07/17 10:21:22;;;;;;;7.20;5.93;;;922.50;1510.40;;;;;;5085011;28;20028;-72
2023/07/17 10:23:50;;;;;;;8.85;5.35;;;922.50;1484.80;;;;;;5083823;28;20092;-74
2023/07/17 10:26:19;;;;;;;6.95;5.15;;;947.30;1484.80;;;;;;5079867;28;20029;-71
2023/07/17 10:28:52;;;;;;;10.13;6.20;;;972.90;1459.20;;;;;;5075481;28;20033;-70
2023/07/17 10:31:20;;;;;;;8.32;5.88;;;998.40;1382.40;;;;;;5083791;28;20021;-73
2023/07/17 10:33:55;;;;;;;8.20;5.38;;;999.00;1331.20;;;;;;5090270;28;20036;-76
2023/07/17 10:36:40;;;;;;;6.65;5.40;;;999.10;1305.60;;;;;;5076178;28;20044;-74
2023/07/17 10:39:07;;;;;;;7.30;5.05;;;1024.20;1280.00;;;;;;5083862;28;20051;-73
2023/07/17 10:41:36;;;;;;;5.50;4.53;;;1024.90;1228.80;;;;;;5076137;28;20024;-71
2023/07/17 10:44:08;;;;;;;9.40;5.43;;;1024.90;1203.20;;;;;;5076418;28;20103;-72
2023/07/17 10:46:35;;;;;;;9.02;5.75;;;1050.10;1280.00;;;;;;5083307;28;20369;-73
2023/07/17 10:49:15;;;;;;;6.65;5.57;;;1050.00;1228.80;;;;;;5076012;28;20035;-73
2023/07/17 10:51:49;;;;;;;11.07;5.65;;;1050.10;1228.80;;;;;;5076531;28;20021;-72
2023/07/17 10:54:17;;;;;;;7.38;5.55;;;1049.60;1280.00;;;;;;5079738;28;20489;-77
2023/07/17 10:56:48;;;;;;;5.95;5.35;;;1049.70;1254.40;;;;;;5077977;28;20085;-72
2023/07/17 10:59:16;;;;;;;7.95;4.90;;;1024.90;1228.80;;;;;;5077795;28;20121;-74
2023/07/17 11:01:43;;;;;;;8.63;5.05;;;1050.00;1228.80;;;;;;5079803;28;20166;-76
2023/07/17 11:04:08;;;;;;;8.63;5.70;;;1050.10;1203.20;;;;;;5078682;28;20033;-82
2023/07/17 11:06:34;;;;;;;8.48;5.45;;;1050.00;1228.80;;;;;;5083419;28;20509;-73
2023/07/17 11:09:00;;;;;;;9.85;5.47;;;1050.00;1203.20;;;;;;5084746;28;20036;-73
2023/07/17 11:11:26;;;;;;;11.73;5.65;;;1049.70;1254.40;;;;;;5084095;28;20029;-73
2023/07/17 11:13:52;;;;;;;7.40;5.38;;;1024.60;1254.40;;;;;;5091217;28;20081;-71
2023/07/17 11:16:21;;;;;;;7.78;5.28;;;1049.60;1254.40;;;;;;5085346;28;20034;-73
2023/07/17 11:18:48;;;;;;;7.65;5.30;;;1050.00;1228.80;;;;;;5091876;28;20040;-74
2023/07/17 11:21:16;;;;;;;9.82;5.50;;;1049.80;1228.80;;;;;;5081903;28;20021;-79
2023/07/17 11:23:52;;;;;;;7.78;5.82;;;1049.70;1203.20;;;;;;5085174;28;20031;-75
2023/07/17 11:26:26;;;;;;;8.02;5.68;;;1024.60;1254.40;;;;;;5084976;28;20020;-72
2023/07/17 11:28:53;;;;;;;9.88;5.57;;;1050.30;1228.80;;;;;;5090246;28;20050;-72
2023/07/17 11:31:30;;;;;;;8.85;5.20;;;1050.00;1177.60;;;;;;5084405;28;20120;-74
2023/07/17 11:33:59;;;;;;;9.05;6.00;;;1024.70;1203.20;;;;;;5082677;28;20040;-74
2023/07/17 11:36:38;;;;;;;9.80;5.38;;;1049.60;1254.40;;;;;;5081116;28;20077;-76
2023/07/17 11:39:20;;;;;;;10.35;5.28;;;1049.80;1203.20;;;;;;5084298;28;20044;-72
2023/07/17 11:41:48;;;;;;;8.70;5.50;;;1050.30;1228.80;;;;;;5087076;28;20051;-76
2023/07/17 11:44:16;;;;;;;7.25;5.32;;;1049.90;1203.20;;;;;;5077798;28;20509;-73
2023/07/17 11:46:42;;;;;;;7.72;5.97;;;1049.80;1228.80;;;;;;5082300;28;20021;-72
2023/07/17 11:49:09;;;;;;;10.50;5.85;;;1050.30;1228.80;;;;;;5082593;28;20043;-75
2023/07/17 11:51:41;;;;;;;8.25;5.45;;;1050.40;1177.60;;;;;;5080737;28;20025;-72
2023/07/17 11:54:07;;;;;;;8.18;5.80;;;1050.40;1177.60;;;;;;5078700;28;20097;-72
2023/07/17 11:56:37;;;;;;;7.30;5.22;;;1075.40;1177.60;;;;;;5079632;28;20025;-73
2023/07/17 11:59:04;;;;;;;6.85;5.10;;;1075.40;1152.00;;;;;;5085715;28;20033;-72
2023/07/17 12:01:29;;;;;;;9.82;6.03;;;1075.20;1177.60;;;;;;5078723;28;20031;-72